Time;durP1;ratioP1;P1;durP2;ratioP2;P2;SDS_P1;SDS_P2;PMS_P1;PMS_P2;Temp;Humidity;BMP_temperature;BMP_pressure;BME280_temperature;BME280_humidity;BME280_pressure;Samples;Min_cycle;Max_cycle;Signal;HPM_P1;HPM_P2
2023/07/14 00:00:52;;;;;;;;;;;;;;;31.20;45.28;99337.22;5135782;27;20002;-41
2023/07/14 00:03:17;;;;;;;;;;;;;;;31.08;46.06;99341.63;5135757;27;19933;-41
2023/07/14 00:05:43;;;;;;;;;;;;;;;31.07;45.86;99340.03;5135627;27;19907;-41
2023/07/14 00:08:17;;;;;;;;;;;;;;;31.08;45.52;99335.34;5135967;27;20298;-41
2023/07/14 00:10:42;;;;;;;;;;;;;;;31.05;45.70;99342.31;5135572;27;19915;-41
2023/07/14 00:13:08;;;;;;;;;;;;;;;31.13;45.20;99337.81;5135604;27;19926;-41
2023/07/14 00:15:34;;;;;;;;;;;;;;;31.04;45.42;99343.50;5135486;27;20374;-42
2023/07/14 00:18:02;;;;;;;;;;;;;;;31.05;45.47;99342.31;5135432;27;20381;-41
2023/07/14 00:20:30;;;;;;;;;;;;;;;30.90;45.62;99335.66;5134977;27;19911;-40
2023/07/14 00:22:56;;;;;;;;;;;;;;;30.84;45.53;99339.75;5135444;27;20431;-42
2023/07/14 00:25:22;;;;;;;;;;;;;;;30.80;45.86;99336.91;5135517;27;19990;-41
2023/07/14 00:27:48;;;;;;;;;;;;;;;30.65;46.53;99325.88;5135131;27;20374;-42
2023/07/14 00:30:18;;;;;;;;;;;;;;;30.72;45.94;99323.34;5135129;27;19907;-41
2023/07/14 00:32:43;;;;;;;;;;;;;;;30.67;46.42;99324.34;5135201;27;19907;-42
2023/07/14 00:35:17;;;;;;;;;;;;;;;30.59;46.98;99326.09;5135164;27;19914;-41
2023/07/14 00:37:42;;;;;;;;;;;;;;;30.59;46.84;99333.53;5135277;27;20278;-41
2023/07/14 00:40:08;;;;;;;;;;;;;;;30.53;47.27;99313.78;5135020;27;19907;-42
2023/07/14 00:42:34;;;;;;;;;;;;;;;30.62;46.93;99310.91;5135291;27;19907;-43
2023/07/14 00:44:59;;;;;;;;;;;;;;;30.60;46.75;99313.19;5135049;27;19915;-41
2023/07/14 00:47:27;;;;;;;;;;;;;;;30.58;47.00;99312.75;5134731;27;20393;-42
2023/07/14 00:49:52;;;;;;;;;;;;;;;30.55;46.97;99310.69;5134830;27;19914;-42
2023/07/14 00:52:24;;;;;;;;;;;;;;;30.43;47.42;99311.53;5134828;27;19907;-41
2023/07/14 00:54:51;;;;;;;;;;;;;;;30.63;46.29;99309.72;5134482;27;20297;-42
2023/07/14 00:57:17;;;;;;;;;;;;;;;30.62;46.41;99310.91;5134326;27;19914;-41
2023/07/14 00:59:43;;;;;;;;;;;;;;;30.33;47.34;99309.25;5134359;27;19919;-42
2023/07/14 01:02:11;;;;;;;;;;;;;;;30.32;47.69;99304.91;5134666;27;20006;-41
2023/07/14 01:04:38;;;;;;;;;;;;;;;30.17;48.36;99307.19;5134537;27;20302;-42
2023/07/14 01:07:04;;;;;;;;;;;;;;;30.09;49.20;99316.34;5133908;27;19918;-43
2023/07/14 01:09:31;;;;;;;;;;;;;;;30.00;48.61;99315.66;5133918;27;19911;-41
2023/07/14 01:11:58;;;;;;;;;;;;;;;30.18;48.28;99317.03;5133626;27;19926;-41
2023/07/14 01:14:29;;;;;;;;;;;;;;;30.27;48.82;99316.09;5133645;27;20400;-41
2023/07/14 01:16:55;;;;;;;;;;;;;;;30.21;48.89;99319.09;5133725;27;19911;-41
2023/07/14 01:19:20;;;;;;;;;;;;;;;29.67;50.33;99318.50;5133990;27;20002;-41
2023/07/14 01:21:48;;;;;;;;;;;;;;;29.60;50.26;99322.59;5134246;27;19994;-41
2023/07/14 01:24:18;;;;;;;;;;;;;;;29.58;50.13;99324.88;5134466;27;19915;-41
2023/07/14 01:27:05;;;;;;;;;;;;;;;29.51;50.32;99313.69;5134316;27;19907;-41
2023/07/14 01:29:31;;;;;;;;;;;;;;;29.47;51.18;99314.72;5134153;27;19998;-41
2023/07/14 01:31:57;;;;;;;;;;;;;;;29.44;51.20;99306.03;5134414;27;19939;-42
2023/07/14 01:34:23;;;;;;;;;;;;;;;29.37;51.51;99314.00;5134001;27;20015;-42
2023/07/14 01:36:48;;;;;;;;;;;;;;;28.82;52.94;99312.44;5134310;27;19911;-41
2023/07/14 01:39:14;;;;;;;;;;;;;;;29.09;52.51;99321.22;5133906;27;19907;-42
2023/07/14 01:41:39;;;;;;;;;;;;;;;29.20;52.42;99317.72;5133798;27;19998;-42
2023/07/14 01:44:05;;;;;;;;;;;;;;;29.13;52.42;99322.16;5133693;27;19908;-42
2023/07/14 01:46:31;;;;;;;;;;;;;;;29.16;51.41;99329.72;5133722;27;19907;-42
2023/07/14 01:48:57;;;;;;;;;;;;;;;29.25;50.98;99319.47;5133733;27;19915;-42
2023/07/14 01:51:23;;;;;;;;;;;;;;;29.35;50.84;99329.19;5133787;27;19917;-42
2023/07/14 01:53:59;;;;;;;;;;;;;;;29.15;51.68;99333.56;5133503;27;19918;-42
2023/07/14 01:56:24;;;;;;;;;;;;;;;29.22;51.70;99329.16;5133597;27;19915;-43
2023/07/14 01:59:00;;;;;;;;;;;;;;;29.36;50.98;99330.78;5133814;27;19919;-42
2023/07/14 02:01:27;;;;;;;;;;;;;;;29.33;50.40;99342.44;5115191;27;20010;-42
2023/07/14 02:03:54;;;;;;;;;;;;;;;29.15;51.52;99337.13;5133456;27;20057;-41
2023/07/14 02:06:19;;;;;;;;;;;;;;;29.11;51.37;99344.41;5132820;27;19907;-41
2023/07/14 02:08:45;;;;;;;;;;;;;;;28.99;51.91;99350.63;5133358;27;20686;-41
2023/07/14 02:11:21;;;;;;;;;;;;;;;28.92;51.91;99352.28;5133371;27;20033;-42
2023/07/14 02:13:46;;;;;;;;;;;;;;;28.87;52.43;99349.78;5133343;27;19915;-41
2023/07/14 02:16:14;;;;;;;;;;;;;;;28.81;52.64;99347.25;5133139;27;19911;-42
2023/07/14 02:18:41;;;;;;;;;;;;;;;28.68;53.09;99337.38;5133267;27;19915;-41
2023/07/14 02:21:07;;;;;;;;;;;;;;;28.61;53.12;99332.41;5132914;27;19930;-41
2023/07/14 02:23:32;;;;;;;;;;;;;;;28.76;52.59;99330.22;5133053;27;20371;-41
2023/07/14 02:25:58;;;;;;;;;;;;;;;28.73;52.47;99325.41;5133342;27;20342;-41
2023/07/14 02:28:23;;;;;;;;;;;;;;;28.50;53.22;99319.44;5133011;27;19907;-41
2023/07/14 02:30:52;;;;;;;;;;;;;;;28.24;53.96;99325.91;5133086;27;19907;-41
2023/07/14 02:33:24;;;;;;;;;;;;;;;27.89;55.04;99328.81;5132671;27;19918;-41
2023/07/14 02:36:04;;;;;;;;;;;;;;;28.08;54.92;99331.13;5132502;27;19911;-40
2023/07/14 02:38:30;;;;;;;;;;;;;;;28.22;54.44;99325.44;5132386;27;20351;-41
2023/07/14 02:41:14;;;;;;;;;;;;;;;28.37;54.12;99334.97;5132578;27;19914;-41
2023/07/14 02:43:39;;;;;;;;;;;;;;;28.41;54.13;99344.13;5132507;27;20027;-41
2023/07/14 02:46:25;;;;;;;;;;;;;;;28.46;53.95;99349.41;5132096;27;20002;-41
2023/07/14 02:48:51;;;;;;;;;;;;;;;28.43;53.89;99350.88;5131723;27;19908;-40
2023/07/14 02:51:16;;;;;;;;;;;;;;;28.36;54.14;99364.28;5132404;27;19914;-41
2023/07/14 02:53:42;;;;;;;;;;;;;;;28.50;53.73;99358.53;5132282;27;19915;-41
2023/07/14 02:56:07;;;;;;;;;;;;;;;28.47;53.88;99367.44;5132150;27;19907;-40
2023/07/14 02:58:33;;;;;;;;;;;;;;;28.43;54.11;99375.50;5132350;27;19907;-41
2023/07/14 03:00:58;;;;;;;;;;;;;;;28.52;53.99;99382.88;5132177;27;19908;-41
2023/07/14 03:03:24;;;;;;;;;;;;;;;28.48;54.05;99379.97;5131850;27;20363;-41
2023/07/14 03:05:50;;;;;;;;;;;;;;;28.54;54.15;99380.59;5131954;27;19955;-42
2023/07/14 03:08:16;;;;;;;;;;;;;;;28.51;53.98;99382.03;5132448;27;19946;-41
2023/07/14 03:10:45;;;;;;;;;;;;;;;28.57;53.99;99375.28;5132281;27;19958;-41
2023/07/14 03:13:11;;;;;;;;;;;;;;;28.69;53.49;99374.53;5131726;27;19937;-41
2023/07/14 03:15:36;;;;;;;;;;;;;;;28.68;53.40;99381.16;5132291;27;20394;-42
2023/07/14 03:18:02;;;;;;;;;;;;;;;28.71;52.80;99377.75;5131629;27;19915;-42
2023/07/14 03:20:27;;;;;;;;;;;;;;;28.66;52.66;99381.47;5132087;27;19937;-41
2023/07/14 03:22:52;;;;;;;;;;;;;;;28.80;52.34;99383.16;5131845;27;19933;-41
2023/07/14 03:25:18;;;;;;;;;;;;;;;28.69;52.27;99392.91;5132194;27;19914;-41
2023/07/14 03:27:45;;;;;;;;;;;;;;;28.73;50.91;99407.53;5132297;27;19907;-40
2023/07/14 03:30:11;;;;;;;;;;;;;;;28.83;50.89;99407.94;5131853;27;19965;-41
2023/07/14 03:32:36;;;;;;;;;;;;;;;28.87;50.65;99413.53;5131653;27;19912;-40
2023/07/14 03:35:02;;;;;;;;;;;;;;;28.88;50.34;99414.34;5131973;27;19954;-42
2023/07/14 03:37:27;;;;;;;;;;;;;;;28.87;49.98;99427.25;5131571;27;20358;-39
2023/07/14 03:39:52;;;;;;;;;;;;;;;28.92;49.63;99429.78;5131856;28;19990;-41
2023/07/14 03:42:18;;;;;;;;;;;;;;;28.89;49.88;99437.88;5131308;28;20367;-41
2023/07/14 03:44:43;;;;;;;;;;;;;;;28.64;50.14;99452.19;5131271;28;20386;-41
2023/07/14 03:47:08;;;;;;;;;;;;;;;28.92;49.52;99456.34;5130920;28;20008;-40
2023/07/14 03:49:34;;;;;;;;;;;;;;;28.75;49.84;99470.94;5131958;28;20389;-41
2023/07/14 03:52:00;;;;;;;;;;;;;;;28.43;50.02;99481.41;5131503;27;19918;-41
2023/07/14 03:54:25;;;;;;;;;;;;;;;28.90;49.47;99480.53;5131695;27;19911;-41
2023/07/14 03:56:52;;;;;;;;;;;;;;;29.14;48.91;99485.38;5131069;28;19907;-41
2023/07/14 03:59:17;;;;;;;;;;;;;;;29.09;48.97;99489.06;5131225;27;19914;-41
2023/07/14 04:01:42;;;;;;;;;;;;;;;29.18;48.77;99494.53;5131433;27;19933;-40
2023/07/14 04:04:08;;;;;;;;;;;;;;;29.40;48.06;99491.44;5132180;28;19914;-42
2023/07/14 04:06:33;;;;;;;;;;;;;;;29.38;48.02;99499.22;5132106;28;20026;-40
2023/07/14 04:08:59;;;;;;;;;;;;;;;29.58;47.03;99496.78;5132196;28;19907;-41
2023/07/14 04:11:24;;;;;;;;;;;;;;;29.51;46.98;99497.34;5132144;28;20056;-41
2023/07/14 04:13:50;;;;;;;;;;;;;;;29.80;46.28;99498.38;5132009;28;20014;-42
2023/07/14 04:16:15;;;;;;;;;;;;;;;30.08;45.83;99495.78;5131867;28;19907;-41
2023/07/14 04:18:40;;;;;;;;;;;;;;;30.05;45.34;99506.66;5132493;28;20355;-42
2023/07/14 04:21:07;;;;;;;;;;;;;;;30.21;44.52;99505.66;5132410;28;19998;-42
2023/07/14 04:23:33;;;;;;;;;;;;;;;30.51;44.09;99501.94;5132085;28;20286;-41
2023/07/14 04:25:58;;;;;;;;;;;;;;;30.86;43.65;99502.25;5131947;28;20415;-41
2023/07/14 04:28:24;;;;;;;;;;;;;;;31.18;42.45;99505.97;5132391;27;20438;-40
2023/07/14 04:30:56;;;;;;;;;;;;;;;31.23;41.86;99510.44;5135718;27;20323;-41
2023/07/14 04:33:22;;;;;;;;;;;;;;;31.54;41.26;99512.53;5135677;27;19916;-41
2023/07/14 04:35:48;;;;;;;;;;;;;;;31.94;40.67;99516.38;5135748;27;19907;-41
2023/07/14 04:38:14;;;;;;;;;;;;;;;32.22;39.92;99508.09;5135624;27;19994;-41
2023/07/14 04:40:40;;;;;;;;;;;;;;;32.43;39.23;99502.31;5135226;27;19972;-41
2023/07/14 04:43:05;;;;;;;;;;;;;;;32.66;39.04;99499.72;5135318;27;19907;-41
2023/07/14 04:45:30;;;;;;;;;;;;;;;32.95;38.39;99497.59;5134547;27;19914;-41
2023/07/14 04:47:56;;;;;;;;;;;;;;;33.29;37.38;99503.47;5134232;27;19908;-42
2023/07/14 04:50:22;;;;;;;;;;;;;;;33.83;36.60;99501.78;5134098;27;19915;-43
2023/07/14 04:52:47;;;;;;;;;;;;;;;33.67;36.92;99494.41;5133760;27;19955;-40
2023/07/14 04:55:12;;;;;;;;;;;;;;;33.48;36.83;99486.94;5132755;27;19966;-42
2023/07/14 04:57:37;;;;;;;;;;;;;;;33.41;36.89;99480.47;5132768;27;19907;-42
2023/07/14 05:00:05;;;;;;;;;;;;;;;33.64;36.95;99475.84;5133259;27;19914;-42
2023/07/14 05:02:30;;;;;;;;;;;;;;;33.85;36.58;99469.94;5133794;27;19907;-41
2023/07/14 05:05:14;;;;;;;;;;;;;;;34.05;36.04;99478.94;5133344;27;19914;-41
2023/07/14 05:07:40;;;;;;;;;;;;;;;34.45;35.06;99471.31;5133757;27;19919;-42
2023/07/14 05:10:06;;;;;;;;;;;;;;;34.84;34.77;99471.91;5133831;27;19927;-41
2023/07/14 05:12:31;;;;;;;;;;;;;;;35.26;33.51;99483.13;5134471;27;20389;-41
2023/07/14 05:14:56;;;;;;;;;;;;;;;35.58;33.44;99472.44;5134464;27;19911;-43
2023/07/14 05:17:21;;;;;;;;;;;;;;;35.47;33.47;99477.03;5134592;27;20382;-41
2023/07/14 05:19:47;;;;;;;;;;;;;;;35.27;32.94;99481.97;5134613;27;19907;-42
2023/07/14 05:22:12;;;;;;;;;;;;;;;35.28;33.42;99465.00;5134230;27;19963;-43
2023/07/14 05:24:37;;;;;;;;;;;;;;;35.81;32.13;99478.63;5134445;27;19913;-41
2023/07/14 05:27:03;;;;;;;;;;;;;;;36.18;31.44;99469.50;5134050;27;19907;-42
2023/07/14 05:29:28;;;;;;;;;;;;;;;36.64;30.64;99481.28;5133948;27;19972;-41
2023/07/14 05:31:53;;;;;;;;;;;;;;;37.02;30.02;99479.94;5134068;27;20263;-43
2023/07/14 05:34:19;;;;;;;;;;;;;;;37.80;28.79;99469.53;5133985;27;19946;-43
2023/07/14 05:36:44;;;;;;;;;;;;;;;37.51;28.76;99472.22;5134112;27;19908;-42
2023/07/14 05:39:09;;;;;;;;;;;;;;;37.47;29.07;99475.00;5133891;27;19907;-41
2023/07/14 05:41:34;;;;;;;;;;;;;;;37.41;28.34;99484.06;5133382;27;19954;-41
2023/07/14 05:44:01;;;;;;;;;;;;;;;37.72;28.05;99494.50;5133890;27;19914;-42
2023/07/14 05:46:26;;;;;;;;;;;;;;;38.34;27.09;99495.34;5133844;27;20002;-42
2023/07/14 05:48:52;;;;;;;;;;;;;;;38.48;26.86;99500.91;5133621;27;20401;-40
2023/07/14 05:51:17;;;;;;;;;;;;;;;38.81;26.44;99495.31;5115003;27;19907;-42
2023/07/14 05:53:42;;;;;;;;;;;;;;;38.63;26.87;99503.69;5133349;27;20255;-43
2023/07/14 05:56:08;;;;;;;;;;;;;;;38.96;26.88;99499.63;5133891;27;19964;-42
2023/07/14 05:58:33;;;;;;;;;;;;;;;39.10;26.43;99504.38;5133323;27;19955;-43
2023/07/14 06:00:58;;;;;;;;;;;;;;;38.33;26.96;99504.88;5133369;27;19908;-43
2023/07/14 06:03:24;;;;;;;;;;;;;;;38.18;26.76;99504.09;5133349;27;20351;-41
2023/07/14 06:05:49;;;;;;;;;;;;;;;38.70;26.29;99512.78;5133425;27;19907;-42
2023/07/14 06:08:14;;;;;;;;;;;;;;;39.55;25.33;99512.16;5132991;27;20389;-43
2023/07/14 06:10:40;;;;;;;;;;;;;;;39.45;25.34;99522.13;5132531;27;19928;-42
2023/07/14 06:13:05;;;;;;;;;;;;;;;39.64;25.48;99513.31;5133005;27;19964;-42
2023/07/14 06:15:30;;;;;;;;;;;;;;;39.67;25.06;99509.69;5133230;27;20394;-42
2023/07/14 06:17:56;;;;;;;;;;;;;;;40.13;24.91;99518.94;5133533;27;20373;-42
2023/07/14 06:20:21;;;;;;;;;;;;;;;40.51;24.54;99521.03;5133157;27;19917;-43
2023/07/14 06:22:48;;;;;;;;;;;;;;;40.54;24.60;99526.59;5132767;27;20101;-42
2023/07/14 06:25:13;;;;;;;;;;;;;;;41.40;23.44;99531.25;5133226;27;20305;-42
2023/07/14 06:27:39;;;;;;;;;;;;;;;41.22;23.63;99534.28;5133257;27;20431;-43
2023/07/14 06:30:04;;;;;;;;;;;;;;;40.68;24.52;99530.44;5133124;27;19907;-43
2023/07/14 06:32:29;;;;;;;;;;;;;;;39.42;24.59;99523.72;5133058;27;19909;-43
2023/07/14 06:34:56;;;;;;;;;;;;;;;38.62;25.75;99524.34;5133253;27;19912;-43
2023/07/14 06:37:24;;;;;;;;;;;;;;;38.76;25.92;99526.28;5132881;27;19911;-42
2023/07/14 06:39:49;;;;;;;;;;;;;;;38.88;25.80;99535.00;5132875;27;19913;-43
2023/07/14 06:42:14;;;;;;;;;;;;;;;38.84;26.03;99528.66;5132719;27;19908;-42
2023/07/14 06:44:39;;;;;;;;;;;;;;;39.43;25.48;99530.06;5132616;27;19907;-42
2023/07/14 06:47:05;;;;;;;;;;;;;;;39.98;24.76;99523.03;5132837;27;19930;-42
2023/07/14 06:49:30;;;;;;;;;;;;;;;40.72;24.26;99531.97;5132996;27;19907;-43
2023/07/14 06:51:56;;;;;;;;;;;;;;;39.75;24.72;99534.69;5132505;27;20394;-41
2023/07/14 06:54:21;;;;;;;;;;;;;;;40.50;24.28;99550.94;5132685;27;19969;-42
2023/07/14 06:56:46;;;;;;;;;;;;;;;40.72;24.26;99542.34;5132588;27;19907;-42
2023/07/14 06:59:12;;;;;;;;;;;;;;;39.95;25.18;99544.16;5132618;27;19946;-43
2023/07/14 07:01:37;;;;;;;;;;;;;;;39.27;25.71;99544.44;5132340;27;19966;-44
2023/07/14 07:04:03;;;;;;;;;;;;;;;39.44;25.99;99540.03;5132811;27;19919;-42
2023/07/14 07:06:28;;;;;;;;;;;;;;;40.29;25.50;99543.50;5132420;27;19914;-43
2023/07/14 07:08:54;;;;;;;;;;;;;;;40.91;24.55;99544.56;5132675;27;20047;-41
2023/07/14 07:11:19;;;;;;;;;;;;;;;41.40;23.98;99548.00;5132116;27;20358;-42
2023/07/14 07:13:44;;;;;;;;;;;;;;;41.48;24.53;99554.28;5132103;27;19966;-42
2023/07/14 07:16:09;;;;;;;;;;;;;;;40.94;25.09;99548.53;5132449;27;19932;-41
2023/07/14 07:18:35;;;;;;;;;;;;;;;40.78;25.51;99547.06;5132509;27;20286;-43
2023/07/14 07:21:01;;;;;;;;;;;;;;;39.93;25.97;99543.78;5131521;27;20409;-42
2023/07/14 07:23:27;;;;;;;;;;;;;;;40.44;25.54;99539.44;5132059;27;19950;-44
2023/07/14 07:25:54;;;;;;;;;;;;;;;40.76;25.07;99543.09;5131993;27;19954;-41
2023/07/14 07:28:19;;;;;;;;;;;;;;;41.58;24.82;99546.97;5131958;27;19924;-41
2023/07/14 07:30:46;;;;;;;;;;;;;;;41.21;24.77;99543.06;5132238;27;20022;-43
2023/07/14 07:33:12;;;;;;;;;;;;;;;40.88;25.35;99534.25;5131772;27;19912;-40
2023/07/14 07:35:38;;;;;;;;;;;;;;;41.38;24.59;99544.84;5132069;27;19926;-41
2023/07/14 07:38:03;;;;;;;;;;;;;;;41.32;24.70;99545.69;5132257;27;19912;-43
2023/07/14 07:40:28;;;;;;;;;;;;;;;41.46;24.37;99544.75;5131736;28;20360;-43
2023/07/14 07:42:54;;;;;;;;;;;;;;;41.74;24.37;99546.38;5132214;28;19907;-42
2023/07/14 07:45:19;;;;;;;;;;;;;;;40.93;25.13;99546.94;5132065;28;20366;-44
2023/07/14 07:47:45;;;;;;;;;;;;;;;41.46;24.64;99542.75;5131539;28;20366;-41
2023/07/14 07:50:10;;;;;;;;;;;;;;;41.89;24.04;99542.19;5131592;28;19914;-43
2023/07/14 07:52:36;;;;;;;;;;;;;;;42.10;23.75;99531.88;5131709;28;19908;-43
2023/07/14 07:55:01;;;;;;;;;;;;;;;41.95;24.19;99528.53;5131698;28;19911;-42
2023/07/14 07:57:26;;;;;;;;;;;;;;;42.04;24.11;99531.59;5131888;28;19982;-42
2023/07/14 07:59:51;;;;;;;;;;;;;;;42.51;23.17;99525.25;5131436;28;20247;-41
2023/07/14 08:02:17;;;;;;;;;;;;;;;41.58;24.27;99533.00;5131538;28;19907;-43
2023/07/14 08:04:42;;;;;;;;;;;;;;;41.68;23.96;99531.28;5134240;27;20302;-42
2023/07/14 08:07:08;;;;;;;;;;;;;;;42.08;23.86;99534.31;5135708;27;19911;-43
2023/07/14 08:09:34;;;;;;;;;;;;;;;42.31;23.61;99531.53;5135426;27;20342;-43
2023/07/14 08:11:59;;;;;;;;;;;;;;;42.73;22.56;99522.84;5135628;27;19931;-42
2023/07/14 08:14:24;;;;;;;;;;;;;;;42.59;22.71;99526.69;5135300;27;19915;-43
2023/07/14 08:16:50;;;;;;;;;;;;;;;42.45;22.54;99526.94;5135448;27;19908;-42
2023/07/14 08:19:15;;;;;;;;;;;;;;;42.66;22.76;99525.78;5135430;27;20442;-44
2023/07/14 08:21:41;;;;;;;;;;;;;;;42.62;22.75;99525.84;5135292;27;19919;-42
2023/07/14 08:24:07;;;;;;;;;;;;;;;42.41;22.89;99521.41;5135487;27;19907;-42
2023/07/14 08:26:32;;;;;;;;;;;;;;;42.41;22.58;99515.03;5134673;27;19922;-43
2023/07/14 08:28:58;;;;;;;;;;;;;;;42.57;22.48;99524.34;5135074;27;20266;-43
2023/07/14 08:31:23;;;;;;;;;;;;;;;42.88;21.43;99514.97;5134892;27;20387;-42
2023/07/14 08:33:50;;;;;;;;;;;;;;;42.84;21.71;99514.22;5135120;27;19912;-42
2023/07/14 08:36:15;;;;;;;;;;;;;;;42.61;21.81;99518.66;5135035;27;19964;-41
2023/07/14 08:38:41;;;;;;;;;;;;;;;42.55;22.19;99509.97;5134669;27;19911;-43
2023/07/14 08:41:09;;;;;;;;;;;;;;;41.89;22.69;99514.25;5135470;27;19918;-40
2023/07/14 08:43:37;;;;;;;;;;;;;;;42.24;22.24;99512.09;5134736;27;19998;-42
2023/07/14 08:46:14;;;;;;;;;;;;;;;42.26;22.75;99508.88;5134863;27;20208;-42
2023/07/14 08:48:46;;;;;;;;;;;;;;;42.66;22.05;99473.41;5134639;27;19915;-42
2023/07/14 08:51:28;;;;;;;;;;;;;;;43.06;22.37;99504.22;5134797;27;20002;-45
2023/07/14 08:53:58;;;;;;;;;;;;;;;43.15;21.87;99501.63;5134992;27;19934;-45
2023/07/14 08:56:24;;;;;;;;;;;;;;;42.93;21.38;99500.50;5134692;27;20393;-43
2023/07/14 08:58:52;;;;;;;;;;;;;;;41.77;22.25;99506.44;5134485;27;20002;-42
2023/07/14 09:01:34;;;;;;;;;;;;;;;42.38;22.35;99502.66;5134324;27;19911;-42
2023/07/14 09:04:03;;;;;;;;;;;;;;;42.45;21.17;99510.16;5134829;27;20203;-42
2023/07/14 09:06:36;;;;;;;;;;;;;;;42.81;20.47;99498.31;5134750;27;20405;-43
2023/07/14 09:09:02;;;;;;;;;;;;;;;42.62;20.26;99497.09;5134517;27;19915;-43
2023/07/14 09:11:46;;;;;;;;;;;;;;;42.76;20.64;99494.00;5134495;27;19959;-43
2023/07/14 09:14:31;;;;;;;;;;;;;;;43.14;20.38;99499.25;5134066;27;19918;-45
2023/07/14 09:17:01;;;;;;;;;;;;;;;43.06;19.06;99493.03;5133814;27;19999;-43
2023/07/14 09:19:26;;;;;;;;;;;;;;;42.52;20.32;99487.69;5134429;27;19907;-44
2023/07/14 09:22:00;;;;;;;;;;;;;;;42.15;20.57;99481.88;5134476;27;19937;-42
2023/07/14 09:24:44;;;;;;;;;;;;;;;41.82;21.14;99482.84;5134378;27;19914;-42
2023/07/14 09:27:13;;;;;;;;;;;;;;;42.45;20.58;99479.41;5134305;27;19914;-42
2023/07/14 09:29:41;;;;;;;;;;;;;;;42.64;19.61;99470.28;5134004;27;19914;-43
2023/07/14 09:32:09;;;;;;;;;;;;;;;42.96;20.06;99475.25;5134169;27;19986;-40
2023/07/14 09:34:38;;;;;;;;;;;;;;;42.48;20.22;99465.38;5134222;27;19915;-42
2023/07/14 09:37:21;;;;;;;;;;;;;;;43.48;19.59;99470.94;5134088;27;20378;-42
2023/07/14 09:39:48;;;;;;;;;;;;;;;42.49;19.94;99461.34;5133636;27;19907;-43
2023/07/14 09:42:22;;;;;;;;;;;;;;;42.29;20.10;99472.50;5133881;27;19978;-43
2023/07/14 09:44:48;;;;;;;;;;;;;;;42.45;20.41;99462.63;5133689;27;19971;-43
2023/07/14 09:47:13;;;;;;;;;;;;;;;42.93;19.76;99469.72;5133779;27;20006;-43
2023/07/14 09:49:44;;;;;;;;;;;;;;;42.38;20.02;99467.13;5134084;27;20346;-42
2023/07/14 09:52:10;;;;;;;;;;;;;;;43.07;19.76;99465.81;5133479;27;19918;-40
2023/07/14 09:54:40;;;;;;;;;;;;;;;43.29;19.03;99449.41;5133501;27;19911;-43
2023/07/14 09:57:09;;;;;;;;;;;;;;;43.80;19.29;99463.06;5133477;27;19907;-43
2023/07/14 09:59:49;;;;;;;;;;;;;;;42.90;19.92;99457.41;5133409;27;19907;-42
2023/07/14 10:02:15;;;;;;;;;;;;;;;43.34;20.35;99457.28;5133233;27;19926;-42
2023/07/14 10:04:46;;;;;;;;;;;;;;;43.27;19.84;99451.81;5133547;27;19908;-44
2023/07/14 10:07:21;;;;;;;;;;;;;;;43.19;19.59;99453.22;5133026;27;19907;-43
2023/07/14 10:09:59;;;;;;;;;;;;;;;43.23;19.60;99451.09;5132978;27;20104;-44
2023/07/14 10:12:25;;;;;;;;;;;;;;;43.13;19.71;99447.34;5133429;27;19911;-43
2023/07/14 10:14:51;;;;;;;;;;;;;;;42.92;20.16;99445.78;5133033;27;19911;-43
2023/07/14 10:17:23;;;;;;;;;;;;;;;43.35;19.60;99436.47;5133369;27;19913;-41
2023/07/14 10:19:49;;;;;;;;;;;;;;;42.84;20.33;99435.91;5133158;27;19911;-40
2023/07/14 10:22:18;;;;;;;;;;;;;;;42.16;21.12;99441.56;5133099;27;19930;-43
2023/07/14 10:24:47;;;;;;;;;;;;;;;42.50;21.05;99434.19;5133209;27;19911;-43
2023/07/14 10:27:18;;;;;;;;;;;;;;;42.81;20.81;99423.59;5132965;27;19914;-44
2023/07/14 10:29:47;;;;;;;;;;;;;;;43.05;20.62;99426.31;5132583;27;20390;-43
2023/07/14 10:32:22;;;;;;;;;;;;;;;42.89;19.46;99435.44;5132958;27;19907;-41
2023/07/14 10:34:59;;;;;;;;;;;;;;;43.08;19.41;99426.22;5132611;27;19917;-43
2023/07/14 10:37:27;;;;;;;;;;;;;;;43.06;19.23;99425.09;5132909;27;19969;-43
2023/07/14 10:39:56;;;;;;;;;;;;;;;43.00;19.88;99422.00;5132754;27;19911;-43
2023/07/14 10:42:23;;;;;;;;;;;;;;;43.17;20.54;99428.44;5132981;27;19951;-45
2023/07/14 10:44:50;;;;;;;;;;;;;;;43.04;20.61;99424.75;5132473;27;19907;-43
2023/07/14 10:47:21;;;;;;;;;;;;;;;43.15;20.00;99419.69;5132318;27;19915;-43
2023/07/14 10:49:51;;;;;;;;;;;;;;;42.77;19.96;99406.88;5132424;27;19918;-42
2023/07/14 10:52:36;;;;;;;;;;;;;;;43.27;20.09;99409.81;5132446;27;19988;-43
2023/07/14 10:55:12;;;;;;;;;;;;;;;43.78;19.67;99404.66;5132369;27;20001;-43
2023/07/14 10:57:41;;;;;;;;;;;;;;;44.00;19.57;99395.69;5132328;27;19907;-43
2023/07/14 11:00:19;;;;;;;;;;;;;;;43.95;19.95;99405.44;5132133;27;19954;-42
2023/07/14 11:02:49;;;;;;;;;;;;;;;43.89;19.61;99393.19;5132421;27;20313;-43
2023/07/14 11:05:15;;;;;;;;;;;;;;;43.56;20.45;99387.56;5132421;27;19912;-43
2023/07/14 11:07:41;;;;;;;;;;;;;;;43.72;19.73;99384.00;5132588;27;19955;-42
2023/07/14 11:10:28;;;;;;;;;;;;;;;43.67;19.57;99376.09;5132001;27;19995;-42
2023/07/14 11:12:58;;;;;;;;;;;;;;;43.88;19.30;99380.41;5132443;27;19973;-43
2023/07/14 11:15:26;;;;;;;;;;;;;;;44.14;19.38;99383.34;5132119;27;19907;-43
2023/07/14 11:17:54;;;;;;;;;;;;;;;43.37;20.12;99380.81;5132177;27;19919;-42
2023/07/14 11:20:29;;;;;;;;;;;;;;;43.44;19.51;99368.66;5131912;27;19998;-43
2023/07/14 11:22:57;;;;;;;;;;;;;;;43.37;19.71;99366.03;5131509;27;19943;-41
2023/07/14 11:25:23;;;;;;;;;;;;;;;43.41;19.72;99363.94;5132164;27;20333;-43
2023/07/14 11:28:01;;;;;;;;;;;;;;;43.45;19.39;99361.84;5131900;27;20379;-43
2023/07/14 11:30:46;;;;;;;;;;;;;;;43.80;18.64;99368.59;5131280;27;19908;-42
2023/07/14 11:33:18;;;;;;;;;;;;;;;43.75;18.82;99362.72;5131783;27;19915;-44
2023/07/14 11:35:55;;;;;;;;;;;;;;;43.71;19.09;99354.41;5131740;27;19915;-42
2023/07/14 11:38:43;;;;;;;;;;;;;;;44.01;19.16;99355.25;5130855;27;19907;-43
2023/07/14 11:41:09;;;;;;;;;;;;;;;44.66;18.93;99359.88;5131415;27;19915;-43
2023/07/14 11:43:35;;;;;;;;;;;;;;;45.10;18.34;99356.56;5131724;28;19908;-43
2023/07/14 11:46:02;;;;;;;;;;;;;;;45.29;18.26;99361.19;5131810;28;20288;-42
2023/07/14 11:48:39;;;;;;;;;;;;;;;45.16;18.90;99358.34;5112892;28;20128;-42
2023/07/14 11:51:27;;;;;;;;;;;;;;;44.97;18.27;99343.31;5131731;28;19907;-41
2023/07/14 11:54:11;;;;;;;;;;;;;;;44.57;18.86;99346.50;5129583;28;20011;-41
2023/07/14 11:56:38;;;;;;;;;;;;;;;44.42;18.63;99343.31;5132199;28;19915;-41
2023/07/14 11:59:13;;;;;;;;;;;;;;;44.84;18.54;99343.28;5131826;28;20294;-42
2023/07/14 12:01:47;;;;;;;;;;;;;;;45.27;17.72;99335.56;5130687;28;20066;-42
2023/07/14 12:04:21;;;;;;;;;;;;;;;44.52;17.69;99332.22;5131794;28;19964;-42
2023/07/14 12:06:48;;;;;;;;;;;;;;;44.22;17.99;99337.84;5132088;28;19907;-44
2023/07/14 12:09:18;;;;;;;;;;;;;;;44.58;18.19;99336.09;5132276;28;19913;-42
2023/07/14 12:11:57;;;;;;;;;;;;;;;44.82;18.58;99333.72;5132271;28;19920;-43
2023/07/14 12:14:28;;;;;;;;;;;;;;;44.19;18.46;99321.13;5126970;28;20322;-42
2023/07/14 12:16:53;;;;;;;;;;;;;;;43.88;18.94;99318.75;5131882;28;19915;-43
2023/07/14 12:19:32;;;;;;;;;;;;;;;44.48;18.45;99321.13;5132222;28;19972;-42
2023/07/14 12:22:02;;;;;;;;;;;;;;;44.53;18.10;99312.16;5132437;28;19913;-43
2023/07/14 12:24:30;;;;;;;;;;;;;;;44.45;18.69;99316.38;5131860;28;19907;-42
2023/07/14 12:26:58;;;;;;;;;;;;;;;44.66;17.99;99312.97;5132464;27;20028;-41
2023/07/14 12:29:23;;;;;;;;;;;;;;;45.87;17.34;99315.13;5131355;28;19918;-41
2023/07/14 12:31:50;;;;;;;;;;;;;;;45.42;18.15;99305.00;5132112;28;19903;-37
2023/07/14 12:34:20;;;;;;;;;;;;;;;45.02;18.14;99303.47;5132186;28;19911;-37
2023/07/14 12:36:45;;;;;;;;;;;;;;;45.12;18.64;99314.81;5132145;28;19907;-37
2023/07/14 12:39:11;;;;;;;;;;;;;;;45.08;17.92;99310.06;5132382;28;19908;-37
2023/07/14 12:41:38;;;;;;;;;;;;;;;45.33;18.05;99307.72;5132148;28;20041;-37
2023/07/14 12:44:03;;;;;;;;;;;;;;;45.51;17.61;99307.91;5128746;28;19911;-37
2023/07/14 12:46:35;;;;;;;;;;;;;;;45.56;17.20;99306.53;5131936;28;19958;-36
2023/07/14 12:49:18;;;;;;;;;;;;;;;44.60;17.62;99300.75;5131841;27;20347;-37
2023/07/14 12:51:44;;;;;;;;;;;;;;;44.13;17.93;99292.88;5135276;27;19984;-37